Zurich, Switzerland
Current Conditions -  °F | °C
As of 2:50 PM on Wednesday 26 Nov 2014 (Local Time) from LSMD Reporting Station
Overcast Overcast  
Wind Chill: 48°   Ceiling: 900
Heat Index: 48°   Visibility: 6mi
Dew Point: 45°   Wind: 3mph
Humidity: 87%   Direction: 30°NNE
Pressure: 29.94"   Gusts: NA
Location:  47.38°N, 8.54°E
Report Text: LSMD 261350Z 03003KT 280V090 9999 OVC009 09/07 Q1014 RMK YLO
Loading
Personal Weather Stations






























Interactive Weather Map New forecast layout! Learn more

10-Day Weather Forecast

Advertisements
Track Severe Weather on mobile